x

Eel River - 17nm Wsw Of Eureka, Ca (46022) Weather Station

5:20am - Sat 15th Dec 2018 All times are PST. -8 hours from GMT.

  • Wind
    13mph, 20mph gusts
  • Sea Temp 55°f
  • Sea Pressure 1017.4mb
  • Eel River - 17nm Wsw Of Eureka, Ca
  • Eel River - 17nm Wsw Of Eureka, Ca

More Historic Weather Station data

Upgrade to MSW Pro to gain access to the past 30 days of data for over 8000 Wavebouys and Weather Stations around the globe.

Join

Comparision Forecast

View Surf forecast
   
Sat 12/15 5:20am  -   -  13 20 mph 1017.4mb 55f -
5:10am  -   -  11 20 mph 1017.3mb 55f -
5:00am  -   -  11 25 mph 1017.6mb 55f -
4:50am  -   -  11 20 mph 1017.2mb - -
4:40am  -   -  11 18 mph 1017.4mb - -
4:30am  -   -  11 18 mph 1017.5mb 55f -
4:20am  -   -  11 22 mph 1017.3mb - -
4:10am  -   -  9 20 mph 1018.1mb 55f -
4:00am  -   -  11 20 mph 1018.2mb 55f -
3:50am 15ft 11s 9 16 mph 1018.4mb 55f -
3:40am  -   -  7 16 mph 1018.3mb - -
3:30am  -   -  7 13 mph 1018.5mb 55f -
3:20am  -   -  7 13 mph 1018.5mb 55f -
3:10am  -   -  7 11 mph 1018.6mb 55f -
3:00am  -   -  9 16 mph 1018.7mb 55f -
2:50am 15.5ft 15s 9 16 mph 1018.7mb 55f -
2:40am  -   -  9 16 mph 1018.8mb 55f -
2:30am  -   -  9 18 mph 1019mb 55f -
2:20am  -   -  9 18 mph 1019.3mb 55f -
2:10am  -   -  9 18 mph 1019.3mb 55f -
2:00am  -   -  9 16 mph 1019.1mb 55f -
1:50am 17ft 14s 7 13 mph 1019.2mb 55f -
1:40am  -   -  9 18 mph 1019.2mb 55f -
1:30am  -   -  9 16 mph 1019.2mb 55f -
1:20am  -   -  7 11 mph 1019.2mb 55f -
1:10am  -   -  7 11 mph 1019.4mb 55f -
1:00am  -   -  7 13 mph 1019.4mb - -
12:50am 16.5ft 14s 7 13 mph 1019.5mb 55f -
12:40am  -   -  7 11 mph 1019.5mb 55f -
12:30am  -   -  7 18 mph 1019.5mb 55f -
12:20am  -   -  9 16 mph 1019.7mb 55f -
12:10am  -   -  9 20 mph 1019.8mb 55f -
12:00am  -   -  11 18 mph 1019.9mb 55f -
Fri 12/14 11:50pm 16.5ft 15s 11 20 mph 1019.9mb 55f -
11:40pm  -   -  13 22 mph 1019.6mb - -
11:30pm  -   -  11 18 mph 1020.3mb 55f -
11:20pm  -   -  9 16 mph 1020.2mb 55f -
11:10pm  -   -  9 16 mph 1020.4mb 55f -
11:00pm  -   -  9 16 mph 1020.5mb 55f -
10:50pm 13ft 15s 9 16 mph 1020.6mb 55f -
10:40pm  -   -  7 13 mph 1020.7mb 55f -
10:30pm  -   -  7 13 mph 1020.7mb 55f -
10:20pm  -   -  7 13 mph 1020.8mb 55f -
10:10pm  -   -  7 13 mph 1020.8mb 55f -
10:00pm  -   -  9 16 mph 1020.8mb 55f -
9:50pm 15ft 16s 9 16 mph 1020.7mb 55f -
9:40pm  -   -  9 20 mph 1020.6mb 55f -
9:30pm  -   -  9 16 mph 1020.6mb 55f -
9:20pm  -   -  7 13 mph 1020.6mb 55f -
9:10pm  -   -  4 9 mph 1020.6mb 55f -
9:00pm  -   -  4 9 mph 1020.6mb 55f -
8:50pm 13.5ft 15s 4 9 mph 1020.6mb 55f -
8:40pm  -   -  2 7 mph 1020.7mb 55f -
8:30pm  -   -   -  4 mph 1020.8mb - -
8:20pm  -   -  2 9 mph 1020.9mb 55f -
8:10pm  -   -   -  4 mph 1020.7mb - -
8:00pm  -   -   -  4 mph 1020.6mb 55f -
7:50pm 13ft 15s 2 7 mph 1020.3mb 55f -
7:40pm  -   -   -  4 mph 1020.2mb 55f -
7:30pm  -   -   -  4 mph 1020.2mb 55f -
7:20pm  -   -  2 7 mph 1020.3mb 55f -
7:10pm  -   -  7 11 mph 1020.3mb 55f -
7:00pm  -   -  4 9 mph 1020.3mb 55f -
6:50pm 14ft 16s 4 11 mph 1020.1mb 55f -
6:40pm  -   -  7 11 mph 1020mb 55f -
6:30pm  -   -  7 13 mph 1019.8mb 55f -
6:20pm  -   -  4 9 mph 1019.7mb 55f -
6:10pm  -   -  7 11 mph 1019.5mb 55f -
6:00pm  -   -  7 11 mph 1019.4mb 55f -
5:50pm  -   -  7 13 mph 1019.4mb 55f -
5:40pm  -   -  9 11 mph 1019.3mb 55f -
5:30pm  -   -  9 13 mph 1019.3mb 55f -
5:20pm  -   -  9 13 mph 1019mb 55f -
5:10pm  -   -  9 16 mph 1018.8mb 55f -
5:00pm  -   -  7 11 mph 1018.6mb 55f -
4:50pm 14ft 16s 9 13 mph 1018.5mb - -
4:40pm  -   -  9 16 mph 1018.3mb 55f -
4:30pm  -   -  11 16 mph 1018.1mb 55f -
4:20pm  -   -  11 18 mph 1017.8mb 55f -
4:10pm  -   -  13 18 mph 1017.7mb 55f -
4:00pm  -   -  13 18 mph 1017.4mb 55f -
3:50pm 14ft 16s 13 18 mph 1017.3mb 55f -
3:40pm  -   -  11 18 mph 1017.1mb 55f -
3:20pm  -   -  16 22 mph 1016.7mb 55f -
3:10pm  -   -  16 20 mph 1016.5mb 55f -
3:00pm  -   -  16 20 mph 1016.5mb 55f -
2:50pm 11.5ft 16s 18 22 mph 1016.1mb 55f -
2:40pm  -   -  16 22 mph 1016.1mb 55f -
2:30pm  -   -  18 22 mph 1016mb - -
2:20pm  -   -  18 25 mph 1015.9mb 55f -
2:10pm  -   -  18 25 mph 1015.8mb 55f -
2:00pm  -   -  18 22 mph 1015.7mb 55f -
1:50pm 14ft 16s 16 25 mph 1015.5mb 55f -
1:40pm  -   -  18 22 mph 1015.5mb 55f -
1:30pm  -   -  16 25 mph 1015.2mb 55f -
1:20pm  -   -  16 20 mph 1015mb 55f -
1:10pm  -   -  18 22 mph 1014.8mb 55f -
1:00pm  -   -  18 22 mph 1014.5mb 55f -
12:50pm 14.5ft 15s 18 22 mph 1014.3mb 55f -
12:40pm  -   -  16 22 mph 1014.1mb 55f -
12:30pm  -   -  13 20 mph 1014.1mb 55f -
12:20pm  -   -  22 29 mph 1013.9mb 55f -
12:10pm  -   -  18 31 mph 1013.8mb 55f -
12:00pm  -   -  7 13 mph 1013.7mb 55f -
11:50am 13ft 16s 13 22 mph 1013.6mb 55f -
11:40am  -   -  16 20 mph 1013.8mb 55f -
11:30am  -   -  18 22 mph 1013.1mb 55f -
11:20am  -   -  20 25 mph 1013mb 55f -
11:10am  -   -  22 29 mph 1012.7mb 55f -
11:00am  -   -  25 31 mph 1012.7mb 54f -
10:50am 14ft 15s 22 31 mph 1012.6mb 54f -
10:40am  -   -  25 38 mph 1012.7mb 54f 53f
10:30am  -   -  31 43 mph 1012.3mb 54f 53f
10:20am  -   -  29 40 mph 1011.7mb 54f 53f
10:10am  -   -  34 51 mph 1012.2mb 54f 53f
10:00am  -   -  31 43 mph 1012mb 54f 55f
9:50am 15ft 15s 38 49 mph 1011.7mb 54f 55f
9:40am  -   -  36 49 mph 1010.7mb 54f 56f
9:30am  -   -  36 47 mph 1010.5mb 54f -
9:20am  -   -  40 56 mph 1009.6mb - 57f
9:10am  -   -  38 47 mph 1010mb 54f 58f
9:00am  -   -  40 51 mph 1008.6mb 55f 57f
8:50am 14.5ft 16s 40 51 mph 1008.3mb 55f 57f
8:40am  -   -  40 51 mph 1007.9mb 55f 57f
8:30am  -   -  40 54 mph 1007.9mb 55f 57f
8:20am  -   -  40 54 mph 1008.3mb 55f -
8:10am  -   -  40 56 mph 1008.1mb - 57f
8:00am  -   -  38 51 mph 1008.4mb 55f 57f
7:50am 15ft 15s 40 54 mph 1008.6mb 55f 58f
7:40am  -   -  38 56 mph 1008.5mb 55f 58f
7:30am  -   -  36 49 mph 1008.6mb 55f 57f
7:20am  -   -  38 51 mph 1008.4mb 55f 58f
7:10am  -   -  38 47 mph 1007.9mb 55f -
7:00am  -   -  40 54 mph 1007.6mb - 58f
6:50am 13ft 14s 38 51 mph 1008.4mb 55f -
6:40am  -   -  38 49 mph 1008.2mb 55f -
6:30am  -   -  36 47 mph 1008.6mb 55f -
6:20am  -   -  36 49 mph 1008.5mb 55f -
6:10am  -   -  38 51 mph 1008.1mb 55f 58f
6:00am  -   -  38 49 mph 1008.2mb 55f 58f
5:50am 13ft 16s 36 47 mph 1008.1mb 55f 59f
5:40am  -   -  36 45 mph 1008.6mb 55f 58f
5:30am  -   -  34 45 mph 1008.8mb 55f 59f
5:20am  -   -  36 45 mph 1009mb 55f 59f
5:10am  -   -  36 47 mph 1009.5mb 55f 59f
5:00am  -   -  31 40 mph 1010mb - 59f
4:50am  -   -  31 43 mph 1010.2mb 55f 59f
4:40am  -   -  31 43 mph 1010.3mb 55f 59f
4:30am  -   -  29 38 mph 1010.5mb 55f 59f
4:20am  -   -  27 36 mph 1011mb 55f 60f
4:10am  -   -  25 36 mph 1011.1mb 55f 60f
4:00am  -   -  22 31 mph 1011.5mb 55f 59f
3:50am 13ft 15s 18 27 mph 1011.7mb 55f 59f
3:40am  -   -  18 27 mph 1011.9mb 55f 59f
3:30am  -   -  22 29 mph 1012.2mb 55f 60f
3:20am  -   -  20 27 mph 1012.5mb 55f -
3:10am  -   -  20 29 mph 1012.7mb 55f -
3:00am  -   -  22 31 mph 1012.9mb 55f -
2:50am 11ft 16s 25 36 mph 1013mb 55f -
2:40am  -   -  27 34 mph 1012.8mb 55f -
2:30am  -   -  27 34 mph 1012.8mb 55f -
2:20am  -   -  22 29 mph 1012.9mb 55f -
2:10am  -   -  25 31 mph 1013.2mb 55f -
2:00am  -   -  22 31 mph 1013.8mb 55f -
1:50am 11.5ft 16s 22 29 mph 1013.9mb 55f -
1:40am  -   -  22 27 mph 1014mb - -
1:30am  -   -  22 31 mph 1014.3mb 55f -
1:20am  -   -  27 34 mph 1013.9mb - -
1:10am  -   -  27 34 mph 1014mb 55f -
1:00am  -   -  27 34 mph 1014.2mb 55f -
12:50am 12ft 16s 25 34 mph 1014.4mb 55f -
12:40am  -   -  25 29 mph 1014.9mb 55f -
12:30am  -   -  25 29 mph 1015.1mb 55f -
12:20am  -   -  25 31 mph 1015.3mb 55f -
12:10am  -   -  22 29 mph 1015.4mb 55f -
12:00am  -   -  22 27 mph 1015.6mb - -
Thu 12/13 11:50pm 11ft 16s 20 27 mph 1015.8mb 55f -
11:40pm  -   -  20 25 mph 1016mb 55f -
11:30pm  -   -  20 27 mph 1016.1mb 55f -
11:20pm  -   -  18 25 mph 1016.2mb 55f -
11:10pm  -   -  20 27 mph 1016.4mb 55f -
11:00pm  -   -  20 25 mph 1016.3mb 55f -
10:50pm 10.5ft 16s 20 25 mph 1016.3mb 55f -
10:40pm  -   -  25 31 mph 1015.6mb - -
10:30pm  -   -  22 29 mph 1015.9mb 55f -
10:20pm  -   -  22 29 mph 1015.8mb 55f -
10:10pm  -   -  22 29 mph 1015.7mb 55f -
10:00pm  -   -  20 27 mph 1015.9mb - -
9:50pm 10ft 15s 22 27 mph 1016.1mb 55f -
9:40pm  -   -  20 29 mph 1016mb 55f -
9:30pm  -   -  20 27 mph 1016.1mb 55f -
9:20pm  -   -  20 25 mph 1016.3mb 55f -
9:10pm  -   -  20 27 mph 1016.2mb 55f -
9:00pm  -   -  22 27 mph 1015.8mb - -
8:50pm 11ft 16s 20 25 mph 1016.1mb 55f -
8:40pm  -   -  20 27 mph 1016.3mb 55f -
8:30pm  -   -  22 29 mph 1015.9mb 55f -
8:20pm  -   -  20 25 mph 1016.4mb 55f -
8:10pm  -   -  20 27 mph 1016.4mb 55f -
8:00pm  -   -  20 25 mph 1016.6mb - -
7:50pm 11ft 16s 20 27 mph 1016.8mb 55f -
7:40pm  -   -  20 25 mph 1016.7mb 55f -
7:30pm  -   -  20 25 mph 1017mb 55f -
7:20pm  -   -  16 22 mph 1017.2mb 55f -
7:10pm  -   -  13 20 mph 1017.4mb 55f -
7:00pm  -   -  16 22 mph 1017.5mb 54f -
6:50pm 12ft 16s 11 16 mph 1017.8mb 54f -
6:40pm  -   -  9 16 mph 1017.6mb 54f -
6:30pm  -   -  9 13 mph 1017.9mb 54f -
6:20pm  -   -  11 20 mph 1018.1mb 54f -
6:10pm  -   -  13 22 mph 1018mb 54f -
6:00pm  -   -  20 25 mph 1018.1mb - -
5:50pm 13ft 14s 20 27 mph 1018mb 54f -
5:40pm  -   -  22 29 mph 1018mb 54f -
5:30pm  -   -  22 29 mph 1018.1mb 54f -
5:20pm  -   -  22 29 mph 1018.2mb 54f -
5:10pm  -   -  20 27 mph 1018.3mb 54f -
5:00pm  -   -  18 25 mph 1018.6mb - -
4:50pm 12.5ft 16s 18 22 mph 1018.8mb - -
4:40pm  -   -  18 25 mph 1019mb 54f -
4:30pm  -   -  18 22 mph 1019mb 54f -
4:20pm  -   -  18 25 mph 1019.2mb 54f -
4:10pm  -   -  20 25 mph 1019.3mb 54f -
4:00pm  -   -  20 25 mph 1019.1mb - -
3:50pm 14ft 14s 20 25 mph 1019.6mb - -
3:40pm  -   -  18 22 mph 1019.7mb 54f -
3:30pm  -   -  18 22 mph 1019.8mb 54f -
3:20pm  -   -  18 22 mph 1020mb 54f -
3:10pm  -   -  18 22 mph 1020.2mb 54f -
3:00pm  -   -  16 20 mph 1020.3mb 54f -
2:50pm 13ft 13s 13 18 mph 1020.4mb 54f -
2:40pm  -   -  13 18 mph 1020.6mb 54f -
2:30pm  -   -  13 16 mph 1020.9mb - -
2:20pm  -   -  13 16 mph 1020.9mb 54f -
2:10pm  -   -  13 16 mph 1021.1mb 54f -
2:00pm  -   -  11 13 mph 1021.3mb 54f -
1:50pm 14.5ft 15s 11 13 mph 1021.6mb 54f -
1:40pm  -   -  11 13 mph 1021.8mb 54f -
1:30pm  -   -  11 13 mph 1021.8mb 54f -
1:20pm  -   -  11 16 mph 1021.9mb 54f -
1:10pm  -   -  11 13 mph 1022.1mb 54f -
1:00pm  -   -  11 13 mph 1022.2mb 54f -
12:50pm 13.5ft 15s 11 13 mph 1022.3mb 54f -
12:40pm  -   -  11 13 mph 1022.4mb 54f -
12:30pm  -   -  11 13 mph 1022.6mb 54f -
12:20pm  -   -  11 16 mph 1022.8mb 54f -
12:10pm  -   -  11 13 mph 1023.1mb 54f -
12:00pm  -   -  9 13 mph 1023.4mb 54f -
11:50am 13ft 15s 9 13 mph 1023.5mb 54f -
11:40am  -   -  9 13 mph 1023.8mb 54f -
11:30am  -   -  11 13 mph 1023.9mb 54f -
11:20am  -   -  11 16 mph 1024.1mb 54f -
11:10am  -   -  11 13 mph 1024.2mb 54f -
11:00am  -   -  13 16 mph 1024.3mb - -
10:50am 13ft 15s 11 16 mph 1024.5mb 54f -
10:40am  -   -  11 16 mph 1024.7mb 54f -
10:30am  -   -  9 13 mph 1024.7mb 54f -
10:20am  -   -  4 11 mph 1024.8mb 54f -
10:10am  -   -  7 13 mph 1024.8mb 54f -
10:00am  -   -  7 11 mph 1024.9mb - -
9:50am 12ft 16s 4 9 mph 1024.9mb 54f -
9:40am  -   -  4 9 mph 1024.9mb 54f -
9:30am  -   -  4 9 mph 1024.9mb 54f -
9:20am  -   -  4 11 mph 1024.9mb 54f -
9:10am  -   -  7 11 mph 1024.8mb 54f -
9:00am  -   -  7 11 mph 1024.8mb - -
8:50am 12ft 15s 7 11 mph 1024.8mb 54f -
8:40am  -   -  9 13 mph 1024.7mb 54f -
8:30am  -   -  9 13 mph 1024.6mb 54f -
8:20am  -   -  11 16 mph 1024.7mb 54f -
8:10am  -   -  11 18 mph 1024.6mb 54f -
8:00am  -   -  13 20 mph 1024.5mb - -
7:50am 13ft 15s 11 18 mph 1024.5mb 54f -
7:40am  -   -  11 20 mph 1024.6mb 54f -
7:30am  -   -  11 18 mph 1024.7mb 54f -
7:20am  -   -  11 18 mph 1024.7mb 54f -
7:10am  -   -  11 18 mph 1024.8mb 54f -
7:00am  -   -  11 18 mph 1024.9mb 54f -
6:50am 13.5ft 16s 9 18 mph 1025mb 54f -
6:40am  -   -  9 16 mph 1025.1mb 54f -
6:30am  -   -  9 16 mph 1025.1mb 54f -
6:20am  -   -  9 18 mph 1024.6mb - -
6:10am  -   -  9 18 mph 1025mb 54f -
6:00am  -   -  11 16 mph 1025mb 54f -
5:50am 13ft 15s 11 20 mph 1025.1mb 54f -
5:40am  -   -  11 18 mph 1025mb 54f -
5:30am  -   -  11 18 mph 1024.7mb - -
5:20am  -   -  9 16 mph 1025.1mb 54f -
5:10am  -   -  9 16 mph 1025.1mb 54f -
5:00am  -   -  11 18 mph 1025.2mb 54f -
4:50am 14.5ft 16s 13 22 mph 1025.2mb 54f -
4:40am  -   -  16 22 mph 1025.3mb 54f -
4:30am  -   -  16 22 mph 1025.3mb 54f -
4:20am  -   -  13 22 mph 1025.5mb 54f -
4:10am  -   -  13 20 mph 1025.5mb 54f -
4:00am  -   -  13 18 mph 1025.6mb 54f -
3:50am 14ft 15s 11 20 mph 1025.8mb 54f -
3:40am  -   -  13 20 mph 1025.9mb 54f -
3:30am  -   -  13 20 mph 1025.9mb 54f -
3:20am  -   -  13 18 mph 1026.1mb 54f -
3:10am  -   -  13 20 mph 1025.8mb - -
3:00am  -   -  11 18 mph 1026.2mb - -
2:50am 14ft 15s 11 18 mph 1026.3mb 54f -
2:40am  -   -  13 20 mph 1025.7mb - -
2:30am  -   -  13 20 mph 1026.2mb - -
2:20am  -   -  13 20 mph 1026.2mb 54f -
2:10am  -   -  13 20 mph 1025.7mb - -
2:00am  -   -  13 22 mph 1026.1mb 54f -
1:50am 15ft 14s 13 22 mph 1026.3mb 54f -
1:40am  -   -  13 22 mph 1026.2mb 54f -
1:30am  -   -  11 22 mph 1026.4mb 54f -
1:20am  -   -  13 20 mph 1026.1mb - -
1:10am  -   -  11 18 mph 1026.7mb 54f -
1:00am  -   -  11 18 mph 1026.9mb 54f -
12:50am  -   -  11 20 mph 1026.4mb - -
12:40am  -   -  9 16 mph 1026.9mb 54f -
12:30am  -   -  9 16 mph 1027.1mb 54f -
12:20am  -   -  9 13 mph 1027.1mb 54f -
12:10am  -   -  9 16 mph 1027.2mb 54f -
12:00am  -   -  9 18 mph 1026.9mb - -
Wed 12/12 11:50pm 12.5ft 14s 7 13 mph 1027.4mb 54f -
11:40pm  -   -  7 13 mph 1027.4mb 54f -
11:30pm  -   -  7 11 mph 1027.6mb 54f -
11:20pm  -   -  7 11 mph 1027.7mb 54f -
11:10pm  -   -  7 13 mph 1027.7mb 54f -
11:00pm  -   -  7 13 mph 1027.7mb 54f -
10:50pm  -   -  7 13 mph 1027.2mb - -
10:40pm  -   -  7 11 mph 1027.7mb 54f -
10:30pm  -   -  7 13 mph 1027.2mb - -
10:20pm  -   -  4 11 mph 1027.6mb 54f -
10:10pm  -   -  4 9 mph 1027.6mb 54f -
10:00pm  -   -  4 11 mph 1027.6mb 54f -
9:50pm 13.5ft 14s 4 11 mph 1027.7mb 54f -
9:40pm  -   -  4 11 mph 1027.7mb 54f -
9:30pm  -   -  7 18 mph 1027.8mb 54f -
9:20pm  -   -  7 11 mph 1027.8mb 54f -
9:10pm  -   -  7 11 mph 1027.3mb - -
9:00pm  -   -  7 11 mph 1027.7mb 54f -
8:50pm 13.5ft 13s 7 11 mph 1027.8mb 54f -
8:40pm  -   -  9 11 mph 1027.4mb - -
8:30pm  -   -  9 11 mph 1027.9mb 54f -
8:20pm  -   -  9 11 mph 1027.8mb 54f -
8:10pm  -   -  9 11 mph 1028mb 54f -
8:00pm  -   -  9 13 mph 1027.5mb - -
7:50pm 15ft 13s 9 11 mph 1027.9mb 54f -
7:40pm  -   -  9 11 mph 1027.8mb 54f -
7:30pm  -   -  9 13 mph 1027.6mb 54f -
7:20pm  -   -  11 16 mph 1027.7mb 54f -
7:10pm  -   -  13 18 mph 1027.9mb 54f -
7:00pm  -   -  13 18 mph 1027.5mb - -
6:50pm 14ft 14s 11 16 mph 1028.1mb 54f -
6:40pm  -   -  11 16 mph 1028mb 54f -
6:30pm  -   -  11 16 mph 1027.7mb 54f -
6:20pm  -   -  11 16 mph 1027.7mb 54f -
6:10pm  -   -  11 16 mph 1027.3mb - -
6:00pm  -   -  11 16 mph 1027.8mb 54f -
5:50pm 13ft 14s 11 16 mph 1027.9mb 54f -
5:40pm  -   -  11 13 mph 1027.7mb 54f -
5:30pm  -   -  11 16 mph 1027.2mb 54f -
5:20pm  -   -  9 13 mph 1027.6mb 54f -
5:10pm  -   -  11 16 mph 1027.2mb - -
5:00pm  -   -  9 13 mph 1027.8mb 54f -
4:50pm 14.5ft 13s 9 13 mph 1027.8mb 54f -
4:40pm  -   -  11 18 mph 1027.8mb 54f -
4:30pm  -   -  16 20 mph 1027.1mb 54f -
4:20pm  -   -  16 20 mph 1026.6mb - -
4:10pm  -   -  13 18 mph 1027.2mb 54f -
4:00pm  -   -  13 20 mph 1027.1mb - -
3:50pm 15.5ft 14s 13 18 mph 1027.3mb 54f -
3:40pm  -   -  13 16 mph 1027.3mb 54f -
3:30pm  -   -  13 18 mph 1027.1mb 54f -
3:20pm  -   -  13 18 mph 1027.5mb 54f -
3:10pm  -   -  13 16 mph 1027.5mb 54f -
3:00pm  -   -  13 18 mph 1027.5mb 54f -
2:50pm 14.5ft 12s 13 18 mph 1027.5mb 54f -
2:40pm  -   -  13 18 mph 1027.6mb 54f -
2:30pm  -   -  13 18 mph 1027.6mb - -
2:20pm  -   -  13 18 mph 1027.8mb 54f -
2:10pm  -   -  16 20 mph 1027.8mb 54f -
2:00pm  -   -  16 20 mph 1028mb 54f -
1:50pm 14.5ft 13s 16 20 mph 1028.2mb 54f -
1:40pm  -   -  16 20 mph 1028.2mb 54f -
1:30pm  -   -  16 20 mph 1028.4mb 54f -
1:20pm  -   -  16 22 mph 1028mb - -
1:10pm  -   -  16 20 mph 1028.6mb 54f -
1:00pm  -   -  16 20 mph 1028.5mb 54f -
12:50pm 15ft 14s 16 20 mph 1028.4mb 54f -
12:40pm  -   -  16 22 mph 1028.5mb 54f -
12:30pm  -   -  18 22 mph 1028.6mb 54f -
12:20pm  -   -  16 20 mph 1028.9mb 54f -
12:10pm  -   -  16 20 mph 1028.8mb 54f -
12:00pm  -   -  18 22 mph 1029.3mb 54f -
11:50am 15.5ft 13s 18 22 mph 1029.5mb 54f -
11:40am  -   -  18 22 mph 1029.9mb 54f -
11:30am  -   -  18 22 mph 1029.3mb - -
11:20am  -   -  16 20 mph 1029.6mb 54f -
11:10am  -   -  16 20 mph 1029.6mb 54f -
11:00am  -   -  16 20 mph 1029.8mb - -
10:50am 15ft 13s 16 22 mph 1029.9mb 54f -
10:40am  -   -  16 22 mph 1030.1mb 55f -
10:30am  -   -  16 20 mph 1029.7mb 55f -
10:20am  -   -  16 20 mph 1029.5mb 55f -
10:10am  -   -  16 20 mph 1029.4mb 54f -
10:00am  -   -  16 20 mph 1029.1mb 54f -
9:50am 14.5ft 13s 16 20 mph 1028.9mb 54f -
9:40am  -   -  18 22 mph 1029mb 54f -
9:30am  -   -  20 25 mph 1029.4mb 54f -
9:20am  -   -  18 25 mph 1029.2mb 54f -
9:10am  -   -  20 25 mph 1029.3mb 55f -
9:00am  -   -  20 25 mph 1029.4mb 55f -
8:50am 15.5ft 12s 20 27 mph 1029.4mb 55f -
8:40am  -   -  20 25 mph 1029.4mb 55f -
8:30am  -   -  20 22 mph 1029.3mb - -
8:20am  -   -  18 25 mph 1029mb 55f -
8:10am  -   -  18 25 mph 1028.8mb 55f -
8:00am  -   -  20 25 mph 1029mb - -
7:50am 15.5ft 12s 18 25 mph 1028.8mb 55f -
7:40am  -   -  18 25 mph 1028.9mb 55f -
7:30am  -   -  18 25 mph 1028.8mb 55f -
7:20am  -   -  18 22 mph 1028.7mb 55f -
7:10am  -   -  18 22 mph 1028.4mb 55f -
7:00am  -   -  18 22 mph 1028.7mb 55f -
6:50am 14ft 11s 18 22 mph 1028.4mb 55f -
6:40am  -   -  16 20 mph 1028.4mb 55f -
6:30am  -   -  16 20 mph 1028.3mb 55f -
6:20am  -   -  16 20 mph 1028.2mb 55f -
6:10am  -   -  18 22 mph 1027.9mb 55f -
6:00am  -   -  16 20 mph 1028mb - -
5:50am 12.5ft 11s 16 20 mph 1028.1mb 55f -
5:40am  -   -  18 22 mph 1028.2mb 55f -
5:30am  -   -  16 22 mph 1028.3mb - -
5:20am  -   -  18 25 mph 1027.9mb 54f -
5:10am  -   -  18 25 mph 1027.8mb 54f -
5:00am  -   -  20 25 mph 1027.8mb 54f -
4:50am 10ft 11s 20 25 mph 1027.7mb 54f -
4:40am  -   -  20 25 mph 1027.8mb 54f -
4:30am  -   -  20 25 mph 1027.9mb 54f -
4:20am  -   -  20 27 mph 1028mb 54f -
4:10am  -   -  20 25 mph 1028.1mb 54f -
4:00am  -   -  20 27 mph 1028.1mb - -
3:50am 10ft 11s 22 27 mph 1028.2mb 54f -
3:40am  -   -  22 27 mph 1028.3mb 54f -
3:30am  -   -  22 27 mph 1028.2mb 54f -
3:20am  -   -  20 27 mph 1028.1mb 54f -
3:10am  -   -  20 27 mph 1028.1mb 54f -
3:00am  -   -  20 25 mph 1028.1mb 54f -
2:50am 9.5ft 12s 20 25 mph 1028mb 54f -
2:40am  -   -  20 27 mph 1027.9mb 54f -
2:30am  -   -  20 25 mph 1028mb - -
2:20am  -   -  22 27 mph 1027.5mb 54f -
2:10am  -   -  20 25 mph 1027.6mb 54f -
2:00am  -   -  20 25 mph 1027.4mb 54f -
1:50am 9.5ft 11s 20 27 mph 1027.4mb 54f -
1:40am  -   -  20 25 mph 1027.2mb 54f -
1:30am  -   -  22 27 mph 1027mb 54f -
1:20am  -   -  20 27 mph 1026.7mb 54f -
1:10am  -   -  22 27 mph 1026.7mb 54f -
1:00am  -   -  22 27 mph 1026.6mb 54f -
12:50am 9ft 11s 20 25 mph 1026.7mb 54f -
12:40am  -   -  22 27 mph 1026.8mb 54f -
12:30am  -   -  22 29 mph 1026.8mb 54f -
12:20am  -   -  22 27 mph 1027mb 54f -
12:10am  -   -  22 29 mph 1026.8mb 54f -
12:00am  -   -  22 27 mph 1026.6mb 54f -
Tue 12/11 11:50pm  -   -  22 29 mph 1026.5mb 54f -
11:40pm  -   -  22 29 mph 1026mb - -
11:30pm  -   -  18 25 mph 1026.4mb 54f -
11:20pm  -   -  16 22 mph 1026.3mb 54f -
11:10pm  -   -  13 18 mph 1025.7mb - -
11:00pm  -   -  13 18 mph 1026.2mb 54f -
10:50pm 8ft 10s 13 18 mph 1025.8mb 54f -
10:40pm  -   -  13 18 mph 1025.7mb 54f -
10:30pm  -   -  13 18 mph 1025.6mb - -
10:20pm  -   -  16 20 mph 1025.3mb 54f -
10:10pm  -   -  16 22 mph 1025.2mb 54f -
10:00pm  -   -  20 25 mph 1025.1mb - -
9:50pm 8ft 10s 20 27 mph 1024.6mb 54f -
9:40pm  -   -  18 25 mph 1024.2mb - -
9:30pm  -   -  20 27 mph 1024.2mb 54f -
9:20pm  -   -  18 27 mph 1023.4mb - -
9:10pm  -   -  13 18 mph 1023.5mb 54f -
9:00pm  -   -  13 18 mph 1023.2mb 54f -
8:50pm 9ft 11s 13 18 mph 1023.2mb 54f -
8:40pm  -   -  13 18 mph 1023.2mb 54f -
8:30pm  -   -  11 16 mph 1022.3mb - -
8:20pm  -   -  13 20 mph 1022.7mb 55f -
8:10pm  -   -  18 27 mph 1022.6mb 55f -
8:00pm  -   -  11 27 mph 1022.8mb 55f -
7:50pm 9ft 10s 11 13 mph 1022.7mb 55f -
7:40pm  -   -  11 13 mph 1022.9mb 55f -
7:30pm  -   -  11 16 mph 1022.7mb 55f -
7:20pm  -   -  13 16 mph 1022.2mb - -
7:10pm  -   -  13 16 mph 1022.5mb 55f -
7:00pm  -   -  16 18 mph 1022.6mb 55f -
6:20pm  -   -  13 18 mph 1023.2mb 55f -
6:10pm  -   -  13 18 mph 1023mb 55f -
6:00pm  -   -  13 18 mph 1022.9mb - -
5:50pm 9.5ft 11s 16 18 mph 1022.6mb 55f -
5:40pm  -   -  16 20 mph 1022.7mb 55f -
5:30pm  -   -  16 20 mph 1022.4mb 55f -
5:20pm  -   -  16 20 mph 1022.2mb 55f -
5:10pm  -   -  18 22 mph 1022.1mb 55f -
5:00pm  -   -  16 22 mph 1022mb - -